createdAt,value
2018-07-19T00:01:50.471Z,56.89
2018-07-19T00:04:19.319Z,56.66
2018-07-19T00:06:48.125Z,56.76
2018-07-19T00:09:17.469Z,56.58
2018-07-19T00:11:46.331Z,57.41
2018-07-19T00:14:15.246Z,56.61
2018-07-19T00:16:44.451Z,56.54
2018-07-19T00:19:13.872Z,56.06
2018-07-19T00:21:42.698Z,56.65
2018-07-19T00:24:11.532Z,56.10
2018-07-19T00:26:40.353Z,56.64
2018-07-19T00:29:09.140Z,56.27
2018-07-19T00:31:38.178Z,56.68
2018-07-19T00:34:07.199Z,56.53
2018-07-19T00:36:36.222Z,56.45
2018-07-19T00:39:07.198Z,56.07
2018-07-19T00:41:36.047Z,56.41
2018-07-19T00:44:04.935Z,55.76
2018-07-19T00:46:33.951Z,55.72
2018-07-19T00:49:02.752Z,54.91
2018-07-19T00:51:31.553Z,54.69
2018-07-19T00:54:00.376Z,56.19
2018-07-19T00:56:29.258Z,56.07
2018-07-19T00:58:58.258Z,55.71
2018-07-19T01:01:27.259Z,55.42
2018-07-19T01:03:56.029Z,56.29
2018-07-19T01:06:24.856Z,56.23
2018-07-19T01:08:53.752Z,55.89
2018-07-19T01:11:22.566Z,55.73
2018-07-19T01:13:51.563Z,55.50
2018-07-19T01:16:20.345Z,55.37
2018-07-19T01:18:49.150Z,55.85
2018-07-19T01:21:17.949Z,54.72
2018-07-19T01:23:46.789Z,55.53
2018-07-19T01:26:15.567Z,55.88
2018-07-19T01:28:44.416Z,54.45
2018-07-19T01:31:13.427Z,55.12
2018-07-19T01:33:42.223Z,54.23
2018-07-19T01:36:11.189Z,54.88
2018-07-19T01:38:39.979Z,55.00
2018-07-19T01:42:17.808Z,54.77
2018-07-19T01:44:46.834Z,54.54
2018-07-19T01:47:15.741Z,54.30
2018-07-19T01:49:45.482Z,54.24
2018-07-19T01:52:14.823Z,54.56
2018-07-19T01:54:44.029Z,54.40
2018-07-19T01:57:14.356Z,53.47
2018-07-19T01:59:43.861Z,53.80
2018-07-19T02:02:12.978Z,53.58
2018-07-19T02:04:42.017Z,53.72
2018-07-19T02:07:11.130Z,53.10
2018-07-19T02:09:40.342Z,53.00
2018-07-19T02:12:09.330Z,53.43
2018-07-19T02:14:38.190Z,54.30
2018-07-19T02:17:06.997Z,53.98
2018-07-19T02:19:36.046Z,54.38
2018-07-19T02:22:04.857Z,54.49
2018-07-19T02:24:33.727Z,54.43
2018-07-19T02:27:02.727Z,53.43
2018-07-19T02:29:31.752Z,54.00
2018-07-19T02:32:00.609Z,54.21
2018-07-19T02:34:29.588Z,53.75
2018-07-19T02:36:58.422Z,52.96
2018-07-19T02:39:27.283Z,52.72
2018-07-19T02:41:56.279Z,53.45
2018-07-19T02:44:25.091Z,53.38
2018-07-19T02:46:53.913Z,53.57
2018-07-19T02:49:22.722Z,53.57
2018-07-19T02:51:51.760Z,53.71
2018-07-19T02:54:20.827Z,53.40
2018-07-19T02:56:49.654Z,54.61
2018-07-19T02:59:18.641Z,54.59
2018-07-19T03:01:47.630Z,55.36
2018-07-19T03:04:16.405Z,55.78
2018-07-19T03:06:45.251Z,56.02
2018-07-19T03:09:14.064Z,57.08
2018-07-19T03:11:43.486Z,58.18
2018-07-19T03:14:12.341Z,57.95
2018-07-19T03:16:41.138Z,59.17
2018-07-19T03:19:10.146Z,60.00
2018-07-19T03:21:39.129Z,60.25
2018-07-19T03:24:07.978Z,60.32
2018-07-19T03:26:36.780Z,61.59
2018-07-19T03:29:05.962Z,61.97
2018-07-19T03:31:34.727Z,62.25
2018-07-19T03:34:03.538Z,62.71
2018-07-19T03:36:32.535Z,62.30
2018-07-19T03:39:01.367Z,63.36
2018-07-19T03:41:30.602Z,63.16
2018-07-19T03:43:59.573Z,64.57
2018-07-19T03:46:28.373Z,64.03
2018-07-19T03:48:57.187Z,63.58
2018-07-19T03:51:26.155Z,62.97
2018-07-19T03:53:55.005Z,62.64
2018-07-19T03:56:23.804Z,61.59
2018-07-19T03:58:52.604Z,61.11
2018-07-19T04:01:21.577Z,61.71
2018-07-19T04:03:50.362Z,61.89
2018-07-19T04:06:19.231Z,60.97
2018-07-19T04:08:48.246Z,61.89
2018-07-19T04:11:17.099Z,61.96
2018-07-19T04:13:45.921Z,61.88
2018-07-19T04:16:14.673Z,61.62
2018-07-19T04:18:43.681Z,61.59
2018-07-19T04:21:12.471Z,61.86
2018-07-19T04:23:41.345Z,62.22
2018-07-19T04:26:10.305Z,61.65
2018-07-19T04:28:39.243Z,61.56
2018-07-19T04:31:08.326Z,62.40
2018-07-19T04:33:37.142Z,61.76
2018-07-19T04:36:06.318Z,61.80
2018-07-19T04:38:35.253Z,62.33
2018-07-19T04:41:04.315Z,62.28
2018-07-19T04:43:33.274Z,61.89
2018-07-19T04:46:02.276Z,62.62
2018-07-19T04:48:31.310Z,62.13
2018-07-19T04:51:00.293Z,62.34
2018-07-19T04:53:29.155Z,62.11
2018-07-19T04:55:58.003Z,61.97
2018-07-19T04:58:26.811Z,62.23
2018-07-19T05:00:55.803Z,62.41
2018-07-19T05:03:24.666Z,62.99
2018-07-19T05:05:53.478Z,62.78
2018-07-19T05:08:22.360Z,62.18
2018-07-19T05:10:51.426Z,63.09
2018-07-19T05:13:20.350Z,63.01
2018-07-19T05:15:49.147Z,63.51
2018-07-19T05:18:18.006Z,63.06
2018-07-19T05:20:47.062Z,63.64
2018-07-19T05:23:16.203Z,64.22
2018-07-19T05:25:45.220Z,64.35
2018-07-19T05:28:14.017Z,64.18
2018-07-19T05:30:42.823Z,64.63
2018-07-19T05:33:11.789Z,64.84
2018-07-19T05:35:40.631Z,64.91
2018-07-19T05:38:09.507Z,65.72
2018-07-19T05:40:41.247Z,65.65
2018-07-19T05:43:10.319Z,64.89
2018-07-19T05:45:39.115Z,65.67
2018-07-19T05:48:07.964Z,64.55
2018-07-19T05:50:37.401Z,64.82
2018-07-19T05:53:06.281Z,64.84
2018-07-19T05:55:35.284Z,65.40
2018-07-19T05:58:04.186Z,65.28
2018-07-19T06:00:33.012Z,65.04
2018-07-19T06:03:01.922Z,65.21
2018-07-19T06:05:30.933Z,64.77
2018-07-19T06:08:00.213Z,64.95
2018-07-19T06:10:29.246Z,64.94
2018-07-19T06:12:58.352Z,64.37
2018-07-19T06:15:27.934Z,65.32
2018-07-19T06:17:56.800Z,64.30
2018-07-19T06:20:25.625Z,64.60
2018-07-19T06:22:55.409Z,65.17
2018-07-19T06:25:24.247Z,65.68
2018-07-19T06:27:53.729Z,65.92
2018-07-19T06:30:22.855Z,65.95
2018-07-19T06:32:51.869Z,66.45
2018-07-19T06:35:20.898Z,65.82
2018-07-19T06:37:49.942Z,66.03
2018-07-19T06:40:19.026Z,64.97
2018-07-19T06:42:48.065Z,65.66
2018-07-19T06:45:17.134Z,66.46
2018-07-19T06:47:46.179Z,66.58
2018-07-19T06:50:15.075Z,67.30
2018-07-19T06:52:44.120Z,67.32
2018-07-19T06:55:13.142Z,67.42
2018-07-19T06:57:42.073Z,68.69
2018-07-19T07:00:10.964Z,67.65
2018-07-19T07:02:39.777Z,68.31
2018-07-19T07:05:08.621Z,68.62
2018-07-19T07:07:37.482Z,68.45
2018-07-19T07:10:06.410Z,68.37
2018-07-19T07:12:35.428Z,67.92
2018-07-19T07:15:05.021Z,66.73
2018-07-19T07:17:33.948Z,68.10
2018-07-19T07:20:02.929Z,67.76
2018-07-19T07:22:31.778Z,68.40
2018-07-19T07:25:00.606Z,67.88
2018-07-19T07:27:29.588Z,68.55
2018-07-19T07:29:58.493Z,68.42
2018-07-19T07:32:27.380Z,68.15
2018-07-19T07:34:56.577Z,67.39
2018-07-19T07:37:25.695Z,66.98
2018-07-19T07:39:54.586Z,67.30
2018-07-19T07:42:23.674Z,67.08
2018-07-19T07:44:52.721Z,65.76
2018-07-19T07:47:21.757Z,65.66
2018-07-19T07:49:50.599Z,65.30
2018-07-19T07:52:19.583Z,64.80
2018-07-19T07:54:48.432Z,65.67
2018-07-19T07:57:17.364Z,64.65
2018-07-19T07:59:46.222Z,64.39
2018-07-19T08:02:15.292Z,63.16
2018-07-19T08:04:45.050Z,63.81
2018-07-19T08:07:13.922Z,63.04
2018-07-19T08:09:42.742Z,62.98
2018-07-19T08:12:11.794Z,63.29
2018-07-19T08:14:40.882Z,61.87
2018-07-19T08:17:09.806Z,62.32
2018-07-19T08:19:38.622Z,63.31
2018-07-19T08:22:07.526Z,63.55
2018-07-19T08:24:36.656Z,63.85
2018-07-19T08:27:05.494Z,64.46
2018-07-19T08:29:34.351Z,64.68
2018-07-19T08:32:03.335Z,65.17
2018-07-19T08:34:32.558Z,66.02
2018-07-19T08:37:01.400Z,65.91
2018-07-19T08:39:30.257Z,66.29
2018-07-19T08:41:59.270Z,65.92
2018-07-19T08:44:28.083Z,66.38
2018-07-19T08:46:57.018Z,65.58
2018-07-19T08:49:25.985Z,66.21
2018-07-19T08:51:54.838Z,66.45
2018-07-19T08:54:23.685Z,65.96
2018-07-19T08:56:53.111Z,64.59
2018-07-19T08:59:22.021Z,64.47
2018-07-19T09:01:51.234Z,64.27
2018-07-19T09:04:20.220Z,64.71
2018-07-19T09:06:49.490Z,63.41
2018-07-19T09:09:18.342Z,62.84
2018-07-19T09:11:47.163Z,61.81
2018-07-19T09:14:16.731Z,62.91
2018-07-19T09:16:46.160Z,61.95
2018-07-19T09:19:14.991Z,62.82
2018-07-19T09:21:43.819Z,61.37
2018-07-19T09:24:12.787Z,60.57
2018-07-19T09:26:41.910Z,62.02
2018-07-19T09:29:10.939Z,61.91
2018-07-19T09:31:39.892Z,61.99
2018-07-19T09:34:08.788Z,61.72
2018-07-19T09:36:37.847Z,63.37
2018-07-19T09:39:09.858Z,62.80
2018-07-19T09:41:38.719Z,63.61
2018-07-19T09:44:07.588Z,63.11
2018-07-19T09:46:36.399Z,63.86
2018-07-19T09:49:05.283Z,63.94
2018-07-19T09:51:34.293Z,62.91
2018-07-19T09:54:03.543Z,63.68
2018-07-19T09:56:32.800Z,63.83
2018-07-19T09:59:01.856Z,64.57
2018-07-19T10:01:30.696Z,64.92
2018-07-19T10:03:59.601Z,64.51
2018-07-19T10:06:28.603Z,64.69
2018-07-19T10:08:57.635Z,64.49
2018-07-19T10:11:26.679Z,64.90
2018-07-19T10:13:55.547Z,64.87
2018-07-19T10:16:24.423Z,64.94
2018-07-19T10:18:53.530Z,65.01
2018-07-19T10:21:22.371Z,64.99
2018-07-19T10:23:51.172Z,66.01
2018-07-19T10:26:20.019Z,66.12
2018-07-19T10:28:48.846Z,66.10
2018-07-19T10:31:17.954Z,66.84
2018-07-19T10:33:47.038Z,66.35
2018-07-19T10:36:16.295Z,64.89
2018-07-19T10:38:45.121Z,65.40
2018-07-19T10:41:14.667Z,64.32
2018-07-19T10:43:43.472Z,65.01
2018-07-19T10:46:12.532Z,64.42
2018-07-19T10:48:41.365Z,64.74
2018-07-19T10:51:10.218Z,64.30
2018-07-19T10:53:39.058Z,64.24
2018-07-19T10:56:07.918Z,63.63
2018-07-19T10:58:36.802Z,63.51
2018-07-19T11:01:05.676Z,64.24
2018-07-19T11:03:34.559Z,63.67
2018-07-19T11:06:03.471Z,62.49
2018-07-19T11:08:32.834Z,62.11
2018-07-19T11:11:02.002Z,62.43
2018-07-19T11:13:30.855Z,62.93
2018-07-19T11:15:59.816Z,62.79
2018-07-19T11:18:28.699Z,62.98
2018-07-19T11:20:57.582Z,63.53
2018-07-19T11:23:26.436Z,64.50
2018-07-19T11:25:55.260Z,65.34
2018-07-19T11:28:24.106Z,65.50
2018-07-19T11:30:53.351Z,65.23
2018-07-19T11:33:22.605Z,65.39
2018-07-19T11:35:51.473Z,65.01
2018-07-19T11:38:20.561Z,66.06
2018-07-19T11:40:49.511Z,66.25
2018-07-19T11:43:18.344Z,65.11
2018-07-19T11:45:47.186Z,65.58
2018-07-19T11:48:16.075Z,66.15
2018-07-19T11:50:44.932Z,65.54
2018-07-19T11:53:13.809Z,65.68
2018-07-19T11:55:43.041Z,65.52
2018-07-19T11:58:11.946Z,65.53
2018-07-19T12:00:40.870Z,65.94
2018-07-19T12:03:09.716Z,65.07
2018-07-19T12:05:38.542Z,65.23
2018-07-19T12:08:07.411Z,66.16
2018-07-19T12:10:36.243Z,66.84
2018-07-19T12:13:05.048Z,65.78
2018-07-19T12:15:33.882Z,66.99
2018-07-19T12:18:02.756Z,65.95
2018-07-19T12:20:31.770Z,66.41
2018-07-19T12:23:00.593Z,65.57
2018-07-19T12:25:29.493Z,65.12
2018-07-19T12:27:58.343Z,65.60
2018-07-19T12:30:27.216Z,65.59
2018-07-19T12:32:56.140Z,65.00
2018-07-19T12:35:26.134Z,64.20
2018-07-19T12:37:56.055Z,65.08
2018-07-19T12:40:25.305Z,64.70
2018-07-19T12:42:54.655Z,63.95
2018-07-19T12:45:23.566Z,64.64
2018-07-19T12:47:52.530Z,63.91
2018-07-19T12:50:21.424Z,63.96
2018-07-19T12:52:50.237Z,64.53
2018-07-19T12:55:19.096Z,65.38
2018-07-19T12:57:47.932Z,65.08
2018-07-19T13:00:16.853Z,64.70
2018-07-19T13:02:45.829Z,64.97
2018-07-19T13:05:14.646Z,65.37
2018-07-19T13:07:43.517Z,65.09
2018-07-19T13:10:12.477Z,65.33
2018-07-19T13:12:41.386Z,66.01
2018-07-19T13:15:10.375Z,65.75
2018-07-19T13:17:39.473Z,65.19
2018-07-19T13:20:08.576Z,65.60
2018-07-19T13:22:37.463Z,65.23
2018-07-19T13:25:07.048Z,65.67
2018-07-19T13:27:35.864Z,65.74
2018-07-19T13:30:06.589Z,65.63
2018-07-19T13:32:35.411Z,65.85
2018-07-19T13:35:05.880Z,66.30
2018-07-19T13:37:34.801Z,66.09
2018-07-19T13:40:04.401Z,66.52
2018-07-19T13:42:34.197Z,65.64
2018-07-19T13:45:03.091Z,66.87
2018-07-19T13:47:32.114Z,66.87
2018-07-19T13:50:00.968Z,66.29
2018-07-19T13:52:42.724Z,66.33
2018-07-19T13:55:13.398Z,66.69
2018-07-19T13:57:42.274Z,67.07
2018-07-19T14:00:11.261Z,67.18
2018-07-19T14:02:40.223Z,67.04
2018-07-19T14:05:09.261Z,67.96
2018-07-19T14:07:38.298Z,67.41
2018-07-19T14:10:07.188Z,67.52
2018-07-19T14:12:36.042Z,67.84
2018-07-19T14:15:06.464Z,67.77
2018-07-19T14:17:35.278Z,68.49
2018-07-19T14:20:04.425Z,68.87
2018-07-19T14:22:34.472Z,68.24
2018-07-19T14:25:03.483Z,67.97
2018-07-19T14:27:32.338Z,67.98
2018-07-19T14:30:01.445Z,68.80
2018-07-19T14:32:30.375Z,68.06
2018-07-19T14:34:59.368Z,69.14
2018-07-19T14:37:28.196Z,67.89
2018-07-19T14:39:57.072Z,68.71
2018-07-19T14:42:25.911Z,68.29
2018-07-19T14:44:54.789Z,67.97
2018-07-19T14:47:23.659Z,68.56
2018-07-19T14:49:52.482Z,67.96
2018-07-19T14:52:21.352Z,67.48
2018-07-19T14:54:50.190Z,67.19
2018-07-19T14:57:19.041Z,67.55
2018-07-19T14:59:47.900Z,66.79
2018-07-19T15:02:16.727Z,66.90
2018-07-19T15:04:45.590Z,67.21
2018-07-19T15:07:14.440Z,67.45
2018-07-19T15:09:43.369Z,67.64
2018-07-19T15:12:12.330Z,67.60
2018-07-19T15:14:41.154Z,67.93
2018-07-19T15:17:09.977Z,68.62
2018-07-19T15:19:38.902Z,67.95
2018-07-19T15:22:07.822Z,68.26
2018-07-19T15:24:36.719Z,69.46
2018-07-19T15:27:05.993Z,69.33
2018-07-19T15:29:34.838Z,68.67
2018-07-19T15:32:03.860Z,68.79
2018-07-19T15:34:32.713Z,69.56
2018-07-19T15:37:01.933Z,69.50
2018-07-19T15:39:30.780Z,70.54
2018-07-19T15:41:59.788Z,70.09
2018-07-19T15:44:28.620Z,70.81
2018-07-19T15:47:04.060Z,71.25
2018-07-19T15:49:33.587Z,71.60
2018-07-19T15:52:02.549Z,70.16
2018-07-19T15:54:31.450Z,71.50
2018-07-19T15:57:00.411Z,70.94
2018-07-19T18:27:56.497Z,76.17
2018-07-19T18:30:25.370Z,75.17
2018-07-19T18:32:54.236Z,75.76
2018-07-19T18:35:23.478Z,76.37
2018-07-19T18:37:52.318Z,76.07
2018-07-19T18:40:21.094Z,76.39
2018-07-19T18:42:49.924Z,76.12
2018-07-19T18:45:18.730Z,76.36
2018-07-19T18:47:47.656Z,75.22
2018-07-19T18:50:16.647Z,75.03
2018-07-19T18:52:45.498Z,76.14
2018-07-19T18:55:14.367Z,75.35
2018-07-19T18:57:43.162Z,75.31
2018-07-19T19:00:14.515Z,76.19
2018-07-19T19:02:43.398Z,76.61
2018-07-19T19:05:12.203Z,76.06
2018-07-19T19:07:41.007Z,76.25
2018-07-19T19:10:09.874Z,76.33
2018-07-19T19:12:38.784Z,76.50
2018-07-19T19:15:08.033Z,76.06
2018-07-19T19:17:36.846Z,76.66
2018-07-19T19:20:06.099Z,76.09
2018-07-19T19:22:35.302Z,76.16
2018-07-19T19:25:04.184Z,75.60
2018-07-19T19:27:34.633Z,75.92
2018-07-19T19:30:04.821Z,75.67
2018-07-19T19:32:33.719Z,75.98
2018-07-19T19:35:02.636Z,76.55
2018-07-19T19:37:31.457Z,75.84
2018-07-19T19:40:00.285Z,76.41
2018-07-19T19:42:29.115Z,75.79
2018-07-19T19:44:58.015Z,75.92
2018-07-19T19:47:27.759Z,76.03
2018-07-19T19:49:56.715Z,76.87
2018-07-19T19:52:25.491Z,76.88
2018-07-19T19:54:54.320Z,76.50
2018-07-19T19:57:23.497Z,76.54
2018-07-19T19:59:52.400Z,76.45
2018-07-19T20:02:21.887Z,76.84
2018-07-19T20:04:50.716Z,76.90
2018-07-19T20:07:19.655Z,76.77
2018-07-19T20:09:48.488Z,77.13
2018-07-19T20:12:17.992Z,76.64
2018-07-19T20:14:50.644Z,76.35
2018-07-19T20:17:19.530Z,76.21
2018-07-19T20:19:48.393Z,76.64
2018-07-19T20:22:17.413Z,76.67
2018-07-19T20:24:46.373Z,75.74
2018-07-19T20:27:15.271Z,75.46
2018-07-19T20:29:44.217Z,76.33
2018-07-19T20:32:13.197Z,75.64
2018-07-19T20:34:42.072Z,76.18
2018-07-19T20:37:10.956Z,75.75
2018-07-19T20:39:39.784Z,75.93
2018-07-19T20:42:09.304Z,75.68
2018-07-19T20:44:38.114Z,75.21
2018-07-19T20:47:07.440Z,75.28
2018-07-19T20:49:36.785Z,74.39
2018-07-19T20:52:05.821Z,75.34
2018-07-19T20:54:34.698Z,74.56
2018-07-19T20:57:03.586Z,75.37
2018-07-19T20:59:32.435Z,75.29
2018-07-19T21:02:01.319Z,74.81
2018-07-19T21:04:30.329Z,75.42
2018-07-19T21:06:59.721Z,75.50
2018-07-19T21:09:28.553Z,76.65
2018-07-19T21:11:57.437Z,75.95
2018-07-19T21:14:26.248Z,76.88
2018-07-19T21:16:55.461Z,76.00
2018-07-19T21:19:24.355Z,76.66
2018-07-19T21:21:53.167Z,77.10
2018-07-19T21:24:22.318Z,76.11
2018-07-19T21:26:51.150Z,77.12
2018-07-19T21:29:19.923Z,75.97
2018-07-19T21:31:48.738Z,76.75
2018-07-19T21:34:17.562Z,76.58
2018-07-19T21:36:46.353Z,76.32
2018-07-19T21:39:15.119Z,75.47
2018-07-19T21:41:43.965Z,75.17
2018-07-19T21:44:12.760Z,75.67
2018-07-19T21:46:41.643Z,75.75
2018-07-19T21:49:10.498Z,74.86
2018-07-19T21:51:39.322Z,75.79
2018-07-19T21:54:08.181Z,75.44
2018-07-19T21:56:37.074Z,75.47
2018-07-19T21:59:05.996Z,75.27
2018-07-19T22:01:38.925Z,74.91
2018-07-19T22:04:07.809Z,75.26
2018-07-19T22:06:36.592Z,75.13
2018-07-19T22:09:08.104Z,75.17
2018-07-19T22:11:36.969Z,75.07
2018-07-19T22:14:06.786Z,75.49
2018-07-19T22:16:36.063Z,74.49
2018-07-19T22:19:05.343Z,74.38
2018-07-19T22:21:34.191Z,74.99
2018-07-19T22:24:03.053Z,74.65
2018-07-19T22:26:31.898Z,74.70
2018-07-19T22:29:00.687Z,74.89
2018-07-19T22:31:29.742Z,74.55
2018-07-19T22:33:58.569Z,74.81
2018-07-19T22:36:27.358Z,74.88
2018-07-19T22:38:56.142Z,74.76
2018-07-19T22:41:24.947Z,75.20
2018-07-19T22:43:53.744Z,74.96
2018-07-19T22:46:22.536Z,75.14
2018-07-19T22:48:55.283Z,75.09
2018-07-19T22:51:24.810Z,73.89
2018-07-19T22:53:53.626Z,74.94
2018-07-19T22:56:22.470Z,74.08
2018-07-19T22:58:51.285Z,73.86
2018-07-19T23:01:20.100Z,73.70
2018-07-19T23:03:49.277Z,73.67
2018-07-19T23:06:18.118Z,73.85
2018-07-19T23:08:47.451Z,74.52
2018-07-19T23:11:16.282Z,74.97
2018-07-19T23:13:45.496Z,75.20
2018-07-19T23:16:14.300Z,75.30
2018-07-19T23:18:43.071Z,75.38
2018-07-19T23:21:11.870Z,74.98
2018-07-19T23:23:40.710Z,75.28
2018-07-19T23:26:09.510Z,75.51
2018-07-19T23:28:38.388Z,75.70
2018-07-19T23:31:07.293Z,75.20
2018-07-19T23:33:36.146Z,75.72
2018-07-19T23:36:08.929Z,75.36
2018-07-19T23:38:50.170Z,76.08
2018-07-19T23:41:24.122Z,76.14
2018-07-19T23:43:58.037Z,75.71
2018-07-19T23:47:04.063Z,75.71
2018-07-19T23:49:33.010Z,76.51
2018-07-19T23:52:01.855Z,76.58
2018-07-19T23:54:30.688Z,76.12
2018-07-19T23:56:59.490Z,76.96
2018-07-19T23:59:28.306Z,76.76
